createdAt,value
2022-11-20T00:00:23.413Z,49.03
2022-11-20T00:02:50.044Z,68.65
2022-11-20T00:05:17.448Z,47.28
2022-11-20T00:07:44.810Z,50.67
2022-11-20T00:10:11.560Z,54.72
2022-11-20T00:15:05.592Z,42.72
2022-11-20T00:17:32.228Z,46.70
2022-11-20T00:19:58.924Z,49.45
2022-11-20T00:22:25.659Z,56.28
2022-11-20T00:24:52.339Z,52.85
2022-11-20T00:27:19.824Z,46.92
2022-11-20T00:29:46.514Z,60.33
2022-11-20T00:32:13.202Z,65.10
2022-11-20T00:34:39.986Z,60.63
2022-11-20T00:37:06.577Z,71.75
2022-11-20T00:39:33.810Z,68.65
2022-11-20T00:42:00.945Z,72.93
2022-11-20T00:44:27.650Z,78.57
2022-11-20T00:46:54.658Z,75.57
2022-11-20T00:49:21.445Z,66.30
2022-11-20T00:54:14.788Z,55.58
2022-11-20T00:56:41.611Z,58.95
2022-11-20T00:59:10.263Z,58.03
2022-11-20T01:01:37.541Z,57.78
2022-11-20T01:04:04.276Z,58.17
2022-11-20T01:06:33.559Z,63.13
2022-11-20T01:09:06.075Z,51.38
2022-11-20T01:11:36.343Z,57.38
2022-11-20T01:14:04.680Z,50.28
2022-11-20T01:16:34.520Z,47.38
2022-11-20T01:19:03.488Z,47.10
2022-11-20T01:21:36.483Z,58.58
2022-11-20T01:26:32.827Z,40.58
2022-11-20T01:29:01.067Z,45.03
2022-11-20T01:31:29.234Z,54.97
2022-11-20T01:34:03.702Z,43.45
2022-11-20T01:36:32.317Z,43.67
2022-11-20T01:39:01.997Z,48.53
2022-11-20T01:41:49.720Z,42.22
2022-11-20T01:44:21.329Z,38.40
2022-11-20T01:46:58.073Z,48.85
2022-11-20T01:49:30.296Z,47.55
2022-11-20T01:52:05.847Z,44.60
2022-11-20T01:54:40.737Z,45.22
2022-11-20T01:57:11.231Z,45.50
2022-11-20T01:59:43.443Z,47.00
2022-11-20T02:02:10.355Z,47.83
2022-11-20T02:04:39.911Z,50.88
2022-11-20T02:07:06.681Z,46.28
2022-11-20T02:12:00.426Z,44.80
2022-11-20T02:14:27.525Z,47.65
2022-11-20T02:16:56.043Z,49.28
2022-11-20T02:19:30.044Z,56.65
2022-11-20T02:21:56.765Z,51.42
2022-11-20T02:24:24.232Z,54.13
2022-11-20T02:26:55.496Z,53.53
2022-11-20T02:29:30.864Z,52.78
2022-11-20T02:31:59.936Z,51.55
2022-11-20T02:34:26.528Z,55.00
2022-11-20T02:36:54.226Z,55.33
2022-11-20T02:39:23.048Z,51.92
2022-11-20T02:41:49.950Z,52.95
2022-11-20T02:44:16.854Z,48.28
2022-11-20T02:49:10.015Z,43.97
2022-11-20T02:51:36.719Z,49.13
2022-11-20T02:54:04.035Z,54.47
2022-11-20T02:56:32.634Z,54.33
2022-11-20T02:59:00.584Z,51.60
2022-11-20T03:01:27.954Z,54.13
2022-11-20T03:03:55.825Z,54.38
2022-11-20T03:06:22.695Z,47.08
2022-11-20T03:11:16.294Z,41.70
2022-11-20T03:16:21.729Z,43.20
2022-11-20T03:18:48.863Z,47.20
2022-11-20T03:21:18.300Z,54.33
2022-11-20T03:23:45.057Z,48.00
2022-11-20T03:26:17.377Z,48.58
2022-11-20T03:28:53.269Z,47.50
2022-11-20T03:31:23.087Z,44.47
2022-11-20T03:33:49.965Z,48.10
2022-11-20T03:36:18.421Z,55.70
2022-11-20T03:38:45.171Z,48.30
2022-11-20T03:41:14.599Z,49.17
2022-11-20T03:43:41.405Z,48.72
2022-11-20T03:46:08.690Z,50.05
2022-11-20T03:48:35.721Z,47.00
2022-11-20T03:53:46.009Z,46.50
2022-11-20T03:56:17.650Z,56.03
2022-11-20T03:58:44.723Z,49.08
2022-11-20T04:01:15.874Z,57.17
2022-11-20T04:03:43.980Z,57.63
2022-11-20T04:06:13.985Z,54.03
2022-11-20T04:08:42.864Z,55.60
2022-11-20T04:11:21.506Z,63.38
2022-11-20T04:13:51.293Z,56.05
2022-11-20T04:16:18.968Z,52.38
2022-11-20T04:18:45.751Z,60.92
2022-11-20T04:21:13.570Z,61.10
2022-11-20T04:23:40.316Z,58.33
2022-11-20T04:26:11.554Z,56.60
2022-11-20T04:28:39.486Z,56.33
2022-11-20T04:31:09.123Z,58.83
2022-11-20T04:33:37.362Z,58.05
2022-11-20T04:36:11.391Z,60.85
2022-11-20T04:38:38.703Z,48.38
2022-11-20T04:41:08.450Z,54.67
2022-11-20T04:43:35.576Z,49.55
2022-11-20T04:46:02.718Z,54.88
2022-11-20T04:48:30.229Z,57.47
2022-11-20T04:50:57.849Z,57.63
2022-11-20T04:53:29.957Z,56.30
2022-11-20T04:56:05.336Z,61.42
2022-11-20T04:58:32.651Z,56.80
2022-11-20T05:01:07.916Z,61.50
2022-11-20T05:03:38.454Z,65.50
2022-11-20T05:06:09.154Z,57.75
2022-11-20T05:08:35.938Z,56.20
2022-11-20T05:11:09.081Z,59.95
2022-11-20T05:13:36.421Z,65.10
2022-11-20T05:16:05.065Z,52.40
2022-11-20T05:18:32.747Z,56.60
2022-11-20T05:23:28.679Z,53.83
2022-11-20T05:25:59.056Z,56.08
2022-11-20T05:28:28.119Z,59.05
2022-11-20T05:30:55.018Z,53.88
2022-11-20T05:35:49.837Z,55.40
2022-11-20T05:38:16.887Z,54.88
2022-11-20T05:40:43.733Z,60.55
2022-11-20T05:43:10.352Z,60.08
2022-11-20T05:45:37.029Z,56.45
2022-11-20T05:48:03.900Z,64.18
2022-11-20T05:50:30.552Z,59.35
2022-11-20T05:55:29.451Z,56.05
2022-11-20T05:57:56.160Z,51.53
2022-11-20T06:00:23.408Z,56.60
2022-11-20T06:02:50.284Z,56.75
2022-11-20T06:07:43.923Z,55.15
2022-11-20T06:10:18.205Z,52.92
2022-11-20T06:12:44.967Z,54.13
2022-11-20T06:15:11.679Z,50.42
2022-11-20T06:18:04.578Z,47.42
2022-11-20T06:20:31.307Z,55.40
2022-11-20T06:23:04.662Z,57.50
2022-11-20T06:25:31.404Z,59.97
2022-11-20T06:27:58.354Z,57.85
2022-11-20T06:30:25.113Z,52.55
2022-11-20T06:32:52.086Z,51.55
2022-11-20T06:37:45.500Z,65.90
2022-11-20T06:40:12.845Z,52.35
2022-11-20T06:42:39.562Z,49.40
2022-11-20T06:45:07.246Z,53.28
2022-11-20T06:47:34.426Z,49.50
2022-11-20T06:50:01.662Z,50.63
2022-11-20T06:52:31.326Z,36.22
2022-11-20T06:54:58.301Z,45.53
2022-11-20T06:59:54.854Z,62.88
2022-11-20T07:02:21.773Z,40.58
2022-11-20T07:04:48.956Z,44.78
2022-11-20T07:07:16.048Z,39.88
2022-11-20T07:09:42.725Z,47.08
2022-11-20T07:12:09.453Z,40.83
2022-11-20T07:14:36.381Z,53.17
2022-11-20T07:19:30.910Z,74.78
2022-11-20T07:21:57.757Z,45.72
2022-11-20T07:26:51.386Z,32.65
2022-11-20T07:29:18.522Z,54.58
2022-11-20T07:31:45.214Z,50.78
2022-11-20T07:34:11.858Z,47.25
2022-11-20T07:36:38.567Z,50.88
2022-11-20T07:39:05.311Z,42.50
2022-11-20T07:41:32.504Z,43.75
2022-11-20T07:43:59.525Z,47.45
2022-11-20T07:46:26.278Z,38.97
2022-11-20T07:48:53.381Z,43.53
2022-11-20T07:51:20.403Z,42.70
2022-11-20T07:53:54.707Z,37.65
2022-11-20T07:56:21.477Z,37.60
2022-11-20T07:58:48.256Z,66.45
2022-11-20T08:01:14.967Z,44.78
2022-11-20T08:03:41.734Z,47.50
2022-11-20T08:06:08.906Z,48.25
2022-11-20T08:08:40.020Z,44.25
2022-11-20T08:11:28.066Z,50.05
2022-11-20T08:14:13.231Z,49.72
2022-11-20T08:16:41.503Z,44.08
2022-11-20T08:19:08.792Z,42.53
2022-11-20T08:21:38.369Z,46.53
2022-11-20T08:24:06.073Z,44.67
2022-11-20T08:26:32.866Z,42.47
2022-11-20T08:29:00.033Z,46.40
2022-11-20T08:31:30.860Z,51.38
2022-11-20T08:33:58.017Z,50.25
2022-11-20T08:36:25.690Z,48.38
2022-11-20T08:38:54.820Z,63.40
2022-11-20T08:41:26.778Z,45.38
2022-11-20T08:44:08.446Z,50.13
2022-11-20T08:46:38.749Z,45.38
2022-11-20T08:49:08.854Z,41.88
2022-11-20T08:51:36.912Z,52.50
2022-11-20T08:54:04.232Z,54.03
2022-11-20T08:56:31.243Z,49.83
2022-11-20T09:01:44.980Z,47.50
2022-11-20T09:04:12.759Z,49.75
2022-11-20T09:06:39.515Z,48.03
2022-11-20T09:09:07.199Z,42.97
2022-11-20T09:11:35.400Z,51.38
2022-11-20T09:14:03.804Z,52.78
2022-11-20T09:16:30.673Z,52.00
2022-11-20T09:19:28.184Z,52.42
2022-11-20T09:21:43.979Z,53.78
2022-11-20T09:24:10.794Z,53.58
2022-11-20T09:26:37.433Z,51.90
2022-11-20T09:29:04.389Z,55.97
2022-11-20T09:31:31.522Z,51.65
2022-11-20T09:33:58.397Z,52.58
2022-11-20T09:38:51.528Z,45.88
2022-11-20T09:41:37.400Z,55.72
2022-11-20T09:44:32.151Z,49.88
2022-11-20T09:47:17.514Z,51.30
2022-11-20T09:50:08.975Z,58.83
2022-11-20T09:52:35.702Z,63.63
2022-11-20T09:55:05.194Z,54.13
2022-11-20T09:57:42.441Z,55.63
2022-11-20T10:00:14.400Z,50.85
2022-11-20T10:03:00.770Z,54.38
2022-11-20T10:05:46.071Z,48.28
2022-11-20T10:08:31.341Z,50.92
2022-11-20T10:11:09.308Z,48.45
2022-11-20T10:13:46.790Z,47.72
2022-11-20T10:16:29.264Z,57.03
2022-11-20T10:19:17.481Z,53.28
2022-11-20T10:21:53.254Z,53.80
2022-11-20T10:24:26.218Z,50.30
2022-11-20T10:27:08.087Z,51.70
2022-11-20T10:29:37.887Z,53.88
2022-11-20T10:32:12.625Z,49.13
2022-11-20T10:35:05.930Z,47.10
2022-11-20T10:37:37.095Z,51.85
2022-11-20T10:40:27.453Z,58.13
2022-11-20T10:44:14.920Z,53.45
2022-11-20T10:47:19.981Z,54.03
2022-11-20T10:49:53.171Z,59.53
2022-11-20T10:52:44.083Z,56.97
2022-11-20T10:55:40.094Z,51.92
2022-11-20T10:58:54.955Z,55.35
2022-11-20T11:01:25.524Z,54.90
2022-11-20T11:03:54.424Z,52.72
2022-11-20T11:06:26.034Z,55.10
2022-11-20T11:08:59.570Z,58.65
2022-11-20T11:11:32.014Z,64.47
2022-11-20T11:14:13.686Z,64.15
2022-11-20T11:16:58.771Z,59.78
2022-11-20T11:19:26.496Z,47.78
2022-11-20T11:21:57.934Z,57.45
2022-11-20T11:24:41.820Z,49.30
2022-11-20T11:27:18.824Z,31.25
2022-11-20T11:29:47.071Z,44.85
2022-11-20T11:32:25.626Z,45.38
2022-11-20T11:37:36.844Z,27.27
2022-11-20T11:43:00.658Z,25.80
2022-11-20T11:45:29.662Z,33.03
2022-11-20T11:47:59.786Z,34.25
2022-11-20T11:50:29.333Z,41.75
2022-11-20T11:53:15.728Z,37.75
2022-11-20T11:55:50.871Z,33.75
2022-11-20T11:58:29.182Z,27.00
2022-11-20T12:01:02.969Z,27.95
2022-11-20T12:03:39.344Z,28.67
2022-11-20T12:06:21.943Z,30.83
2022-11-20T12:09:17.173Z,25.02
2022-11-20T12:11:56.157Z,34.25
2022-11-20T12:14:35.275Z,37.85
2022-11-20T12:17:03.807Z,41.55
2022-11-20T12:19:34.469Z,37.00
2022-11-20T12:22:24.930Z,44.38
2022-11-20T12:24:57.420Z,33.35
2022-11-20T12:27:42.619Z,36.38
2022-11-20T12:30:12.608Z,41.78
2022-11-20T12:33:07.902Z,37.30
2022-11-20T12:35:44.285Z,25.52
2022-11-20T12:38:20.093Z,42.05
2022-11-20T12:41:55.989Z,40.80
2022-11-20T12:45:07.589Z,47.90
2022-11-20T12:48:03.618Z,41.80
2022-11-20T12:51:13.521Z,38.30
2022-11-20T12:54:11.916Z,42.97
2022-11-20T12:57:10.636Z,38.00
2022-11-20T13:00:22.223Z,42.30
2022-11-20T13:03:20.382Z,37.45
2022-11-20T13:06:02.327Z,38.22
2022-11-20T13:08:39.582Z,45.25
2022-11-20T13:11:18.557Z,37.15
2022-11-20T13:14:16.220Z,36.10
2022-11-20T13:17:09.424Z,42.17
2022-11-20T13:19:36.352Z,41.60
2022-11-20T13:22:03.071Z,37.70
2022-11-20T13:24:32.414Z,37.83
2022-11-20T13:27:05.078Z,46.88
2022-11-20T13:29:32.797Z,42.13
2022-11-20T13:32:17.669Z,41.90
2022-11-20T13:37:36.450Z,42.50
2022-11-20T13:43:08.348Z,42.38
2022-11-20T13:45:35.258Z,40.20
2022-11-20T13:48:06.416Z,39.95
2022-11-20T13:50:41.210Z,43.65
2022-11-20T13:53:35.939Z,42.08
2022-11-20T13:56:20.142Z,42.13
2022-11-20T13:59:14.831Z,54.08
2022-11-20T14:01:46.369Z,52.08
2022-11-20T14:04:21.407Z,62.25
2022-11-20T14:06:50.192Z,51.65
2022-11-20T14:09:33.272Z,54.08
2022-11-20T14:12:01.227Z,55.67
2022-11-20T14:14:37.510Z,47.22
2022-11-20T14:17:26.292Z,57.65
2022-11-20T14:19:54.323Z,55.22
2022-11-20T14:22:24.600Z,51.95
2022-11-20T14:25:13.268Z,60.03
2022-11-20T14:27:42.195Z,57.10
2022-11-20T14:30:16.850Z,58.60
2022-11-20T14:32:45.970Z,59.72
2022-11-20T14:35:35.496Z,61.30
2022-11-20T14:38:04.359Z,63.70
2022-11-20T14:40:34.411Z,66.88
2022-11-20T14:43:01.168Z,58.70
2022-11-20T14:45:28.609Z,65.45
2022-11-20T14:47:58.023Z,61.58
2022-11-20T14:50:27.959Z,70.55
2022-11-20T14:52:58.066Z,54.50
2022-11-20T14:55:28.449Z,59.50
2022-11-20T14:58:05.067Z,57.58
2022-11-20T15:00:33.412Z,62.70
2022-11-20T15:03:00.461Z,63.85
2022-11-20T15:05:47.672Z,66.13
2022-11-20T15:08:15.517Z,64.95
2022-11-20T15:10:50.570Z,66.88
2022-11-20T15:13:23.728Z,70.95
2022-11-20T15:15:53.364Z,65.55
2022-11-20T15:18:23.828Z,70.30
2022-11-20T15:20:51.185Z,68.05
2022-11-20T15:23:19.775Z,66.45
2022-11-20T15:25:48.306Z,63.03
2022-11-20T15:28:24.005Z,68.28
2022-11-20T15:30:51.100Z,69.70
2022-11-20T15:33:18.777Z,70.40
2022-11-20T15:35:46.537Z,78.75
2022-11-20T15:38:13.368Z,64.07
2022-11-20T15:43:12.863Z,61.00
2022-11-20T15:45:53.717Z,73.20
2022-11-20T15:48:24.460Z,78.28
2022-11-20T15:50:57.200Z,67.88
2022-11-20T15:53:28.766Z,65.30
2022-11-20T15:55:55.862Z,67.55
2022-11-20T16:00:50.742Z,63.33
2022-11-20T16:05:46.053Z,72.95
2022-11-20T16:08:13.218Z,65.72
2022-11-20T16:10:47.876Z,64.40
2022-11-20T16:13:35.646Z,67.63
2022-11-20T16:16:06.550Z,60.92
2022-11-20T16:18:33.538Z,69.70
2022-11-20T16:21:00.291Z,76.72
2022-11-20T16:23:26.935Z,67.63
2022-11-20T16:25:53.571Z,69.07
2022-11-20T16:28:20.650Z,67.47
2022-11-20T16:30:47.780Z,62.65
2022-11-20T16:33:16.689Z,63.67
2022-11-20T16:35:43.828Z,59.55
2022-11-20T16:38:10.662Z,67.03
2022-11-20T16:43:10.642Z,55.35
2022-11-20T16:45:46.435Z,49.15
2022-11-20T16:48:15.313Z,50.60
2022-11-20T16:50:52.417Z,51.33
2022-11-20T16:53:20.518Z,48.78
2022-11-20T16:55:47.986Z,44.03
2022-11-20T16:58:15.735Z,43.63
2022-11-20T17:00:46.862Z,47.53
2022-11-20T17:03:19.481Z,50.97
2022-11-20T17:05:46.220Z,47.80
2022-11-20T17:08:12.918Z,47.17
2022-11-20T17:10:39.602Z,49.17
2022-11-20T17:13:06.285Z,52.05
2022-11-20T17:15:32.940Z,50.58
2022-11-20T17:17:59.974Z,53.30
2022-11-20T17:20:26.617Z,57.03
2022-11-20T17:22:53.232Z,50.70
2022-11-20T17:25:20.702Z,48.80
2022-11-20T17:27:47.446Z,51.60
2022-11-20T17:30:14.266Z,47.17
2022-11-20T17:35:12.528Z,46.20
2022-11-20T17:37:39.385Z,38.60
2022-11-20T17:40:06.835Z,43.22
2022-11-20T17:42:37.034Z,41.53
2022-11-20T17:45:04.729Z,41.13
2022-11-20T17:47:31.513Z,42.35
2022-11-20T17:52:25.594Z,39.88
2022-11-20T17:57:42.344Z,36.75
2022-11-20T18:00:10.996Z,35.50
2022-11-20T18:02:37.616Z,40.28
2022-11-20T18:05:04.732Z,38.90
2022-11-20T18:07:31.480Z,44.15
2022-11-20T18:12:25.911Z,40.65
2022-11-20T18:14:52.755Z,37.45
2022-11-20T18:20:14.324Z,30.65
2022-11-20T18:22:38.196Z,30.15
2022-11-20T18:25:05.333Z,35.63
2022-11-20T18:27:32.300Z,36.55
2022-11-20T18:29:59.552Z,36.15
2022-11-20T18:32:26.415Z,35.67
2022-11-20T18:34:53.304Z,35.47
2022-11-20T18:39:46.904Z,29.77
2022-11-20T18:42:34.342Z,31.45
2022-11-20T18:45:02.386Z,32.88
2022-11-20T18:47:34.081Z,30.17
2022-11-20T18:50:01.553Z,34.28
2022-11-20T18:52:31.040Z,31.33
2022-11-20T18:54:57.678Z,31.60
2022-11-20T18:57:26.762Z,30.60
2022-11-20T18:59:55.097Z,35.47
2022-11-20T19:02:22.744Z,32.75
2022-11-20T19:04:49.559Z,34.63
2022-11-20T19:07:16.775Z,36.20
2022-11-20T19:09:48.727Z,33.50
2022-11-20T19:12:16.578Z,31.23
2022-11-20T19:14:43.287Z,33.25
2022-11-20T19:17:11.476Z,32.60
2022-11-20T19:19:38.459Z,38.42
2022-11-20T19:22:05.524Z,34.67
2022-11-20T19:24:32.243Z,30.83
2022-11-20T19:26:59.090Z,28.17
2022-11-20T19:31:54.004Z,30.30
2022-11-20T19:36:48.943Z,27.10
2022-11-20T19:39:15.842Z,24.77
2022-11-20T19:41:43.334Z,31.73
2022-11-20T19:44:13.975Z,24.42
2022-11-20T19:46:41.825Z,26.95
2022-11-20T19:49:11.874Z,23.55
2022-11-20T19:51:45.843Z,25.92
2022-11-20T19:54:13.411Z,31.80
2022-11-20T19:56:40.333Z,23.10
2022-11-20T20:01:35.308Z,22.90
2022-11-20T20:04:03.678Z,23.10
2022-11-20T20:06:32.517Z,22.80
2022-11-20T20:09:10.419Z,20.75
2022-11-20T20:11:37.534Z,23.17
2022-11-20T20:14:07.528Z,20.15
2022-11-20T20:16:35.345Z,17.73
2022-11-20T20:19:03.705Z,22.27
2022-11-20T20:21:34.508Z,19.30
2022-11-20T20:24:01.458Z,22.70
2022-11-20T20:26:30.757Z,20.73
2022-11-20T20:29:00.837Z,18.95
2022-11-20T20:31:39.516Z,20.90
2022-11-20T20:34:06.632Z,18.10
2022-11-20T20:36:34.815Z,15.98
2022-11-20T20:39:03.664Z,20.25
2022-11-20T20:41:31.120Z,17.15
2022-11-20T20:44:16.661Z,21.23
2022-11-20T20:46:43.851Z,22.35
2022-11-20T20:49:10.552Z,13.90
2022-11-20T20:54:04.745Z,14.50
2022-11-20T20:56:31.584Z,18.35
2022-11-20T21:01:29.666Z,17.23
2022-11-20T21:03:57.453Z,16.23
2022-11-20T21:06:24.599Z,15.90
2022-11-20T21:08:51.637Z,12.38
2022-11-20T21:11:20.275Z,18.50
2022-11-20T21:13:47.865Z,14.75
2022-11-20T21:16:17.338Z,15.30
2022-11-20T21:18:44.073Z,14.55
2022-11-20T21:21:32.410Z,13.68
2022-11-20T21:23:59.399Z,18.65
2022-11-20T21:26:26.585Z,16.08
2022-11-20T21:28:53.798Z,15.55
2022-11-20T21:31:23.546Z,17.58
2022-11-20T21:33:53.467Z,18.67
2022-11-20T21:36:22.931Z,13.93
2022-11-20T21:38:52.074Z,15.43
2022-11-20T21:41:19.217Z,15.40
2022-11-20T21:43:51.543Z,22.00
2022-11-20T21:46:26.643Z,21.10
2022-11-20T21:48:53.506Z,20.52
2022-11-20T21:51:22.151Z,27.23
2022-11-20T21:53:50.031Z,17.92
2022-11-20T21:56:20.749Z,21.45
2022-11-20T21:58:49.053Z,21.42
2022-11-20T22:01:17.385Z,24.73
2022-11-20T22:03:49.301Z,16.42
2022-11-20T22:06:17.462Z,18.45
2022-11-20T22:08:45.100Z,19.15
2022-11-20T22:11:14.404Z,17.63
2022-11-20T22:14:00.477Z,19.27
2022-11-20T22:16:43.600Z,18.42
2022-11-20T22:19:10.424Z,17.35
2022-11-20T22:21:39.665Z,13.93
2022-11-20T22:24:06.437Z,18.13
2022-11-20T22:29:08.138Z,15.73
2022-11-20T22:31:38.246Z,14.70
2022-11-20T22:34:04.933Z,16.33
2022-11-20T22:36:32.137Z,12.77
2022-11-20T22:39:02.219Z,14.50
2022-11-20T22:41:29.880Z,16.83
2022-11-20T22:43:58.735Z,12.20
2022-11-20T22:46:27.406Z,10.13
2022-11-20T22:48:59.586Z,11.15
2022-11-20T22:51:35.260Z,11.63
2022-11-20T22:54:03.600Z,13.43
2022-11-20T22:56:31.099Z,12.43
2022-11-20T22:58:58.184Z,13.75
2022-11-20T23:01:30.929Z,12.23
2022-11-20T23:06:29.737Z,17.15
2022-11-20T23:08:56.619Z,10.35
2022-11-20T23:11:25.583Z,12.90
2022-11-20T23:13:56.045Z,11.88
2022-11-20T23:16:23.355Z,12.45
2022-11-20T23:18:55.565Z,11.18
2022-11-20T23:21:22.741Z,13.30
2022-11-20T23:23:51.917Z,21.35
2022-11-20T23:26:20.661Z,9.63
2022-11-20T23:28:47.469Z,11.82
2022-11-20T23:31:15.676Z,15.82
2022-11-20T23:33:45.169Z,18.45
2022-11-20T23:36:13.209Z,11.35
2022-11-20T23:38:40.523Z,15.07
2022-11-20T23:41:07.545Z,18.67
2022-11-20T23:43:34.635Z,9.82
2022-11-20T23:46:02.142Z,21.00
2022-11-20T23:48:32.038Z,13.30
2022-11-20T23:50:59.270Z,14.70
2022-11-20T23:53:28.262Z,15.30
2022-11-20T23:55:58.570Z,10.30
2022-11-20T23:58:30.247Z,12.95
